This is the latest recevied weather packets stored in our database for station/object DM2KB-13. If no packets are shown the sender has not sent any weather packets the latest 10 day(s).
| Time | Temp. | Humidity | Pressure | Rain* | Wind** | Luminosity | Snow |
|---|---|---|---|---|---|---|---|
| 1777748482 | 17.22° C | 87% | 1013.6 hPa | 3.3 mm | - | 0 W/m² | - |
| 1777748182 | 17.22° C | 84% | 1013.5 hPa | 3.05 mm | - | 0 W/m² | - |
| 1777747882 | 17.22° C | 83% | 1013.3 hPa | 2.54 mm | - | 0 W/m² | - |
| 1777747581 | 17.78° C | 81% | 1013.2 hPa | 2.29 mm | - | 0 W/m² | - |
| 1777747281 | 18.33° C | 79% | 1013.1 hPa | 2.03 mm | - | 0 W/m² | - |
| 1777746981 | 19.44° C | 75% | 1012.9 hPa | 1.52 mm | - | 0 W/m² | - |
| 1777746681 | 20° C | 74% | 1013.2 hPa | 1.27 mm | - | 0 W/m² | - |
| 1777746380 | 21.11° C | 74% | 1014.1 hPa | 0.76 mm | - | 0 W/m² | - |
| 1777746080 | 22.22° C | 69% | 1014 hPa | 0 mm | - | 0 W/m² | - |
| 1777745780 | 22.22° C | 68% | 1013.1 hPa | 0 mm | - | 7 W/m² | - |
| 1777745479 | 22.22° C | 66% | 1012.9 hPa | 0 mm | - | 14 W/m² | - |
| 1777745179 | 22.22° C | 65% | 1012.9 hPa | 0 mm | - | 19 W/m² | - |
| 1777744879 | 22.78° C | 64% | 1012.8 hPa | 0 mm | - | 28 W/m² | - |
| 1777744578 | 22.78° C | 63% | 1012.9 hPa | 0 mm | - | 37 W/m² | - |
| 1777744278 | 22.78° C | 62% | 1013 hPa | 0 mm | - | 46 W/m² | - |
| 1777743978 | 22.78° C | 62% | 1013 hPa | 0 mm | - | 58 W/m² | - |
| 1777743678 | 22.78° C | 62% | 1013 hPa | 0 mm | - | 70 W/m² | - |
| 1777743377 | 22.78° C | 63% | 1013 hPa | 0 mm | - | 83 W/m² | - |
| 1777743077 | 22.78° C | 63% | 1013 hPa | 0 mm | - | 100 W/m² | - |
| 1777742777 | 22.78° C | 63% | 1013.1 hPa | 0 mm | - | 93 W/m² | - |
| 1777742477 | 22.78° C | 61% | 1013.1 hPa | 0 mm | - | 86 W/m² | - |
| 1777742176 | 23.33° C | 61% | 1013.3 hPa | 0 mm | - | 91 W/m² | - |
| 1777741876 | 23.33° C | 61% | 1013.3 hPa | 0 mm | - | 65 W/m² | - |
| 1777741576 | 23.33° C | 63% | 1013.4 hPa | 0 mm | - | 84 W/m² | - |
| 1777741275 | 23.33° C | 61% | 1013.4 hPa | 0 mm | - | 105 W/m² | - |
* Rain latest hour (hover to see other rain measurements)
** Current wind speed in m/s (hover to see current wind gust speed)